Huesca, Spain
Current Conditions -  °F | °C
As of 11:00 AM on Friday 28 Nov 2014 (Local Time) from LEZG Reporting Station
Scattered Clouds Scattered Clouds  
Wind Chill: 15°   Ceiling: Unl
Heat Index: 15°   Visibility: 6mi
Dew Point: 11°   Wind: 21mph
Humidity: 77%   Direction: 130°SE
Pressure: 29.23"   Gusts: 35mph
Location:  42.14°N, 0.41°W
Report Text: LEZG 281000Z 13018G30KT 9999 FEW010 SCT014 15/11 Q0990
Loading
Personal Weather Stations






























Interactive Weather Map New forecast layout! Learn more

10-Day Weather Forecast

Advertisements
Track Severe Weather on mobile